createdAt,value
2022-07-29T00:03:22.588Z,0
2022-07-29T00:08:34.956Z,0
2022-07-29T00:13:50.813Z,0
2022-07-29T00:19:02.204Z,0
2022-07-29T00:24:12.878Z,0
2022-07-29T00:29:33.881Z,0
2022-07-29T00:34:37.085Z,0
2022-07-29T00:39:49.426Z,0
2022-07-29T00:45:01.920Z,0
2022-07-29T00:50:14.520Z,0
2022-07-29T00:55:26.860Z,0
2022-07-29T01:00:39.306Z,0
2022-07-29T01:05:52.024Z,0
2022-07-29T01:11:03.788Z,0
2022-07-29T01:16:16.293Z,0
2022-07-29T01:21:28.452Z,0
2022-07-29T01:26:40.646Z,0
2022-07-29T01:31:59.690Z,0
2022-07-29T01:37:05.226Z,0
2022-07-29T01:42:17.534Z,0
2022-07-29T01:47:30.247Z,0
2022-07-29T01:52:42.602Z,0
2022-07-29T01:57:54.803Z,0
2022-07-29T02:03:07.043Z,0
2022-07-29T02:08:19.454Z,0
2022-07-29T02:13:31.837Z,0
2022-07-29T02:18:44.294Z,0
2022-07-29T02:29:09.120Z,0
2022-07-29T02:34:21.461Z,0
2022-07-29T02:39:33.906Z,0
2022-07-29T02:44:46.003Z,0
2022-07-29T02:49:58.432Z,0
2022-07-29T02:55:10.608Z,0
2022-07-29T03:00:22.985Z,0
2022-07-29T03:05:35.511Z,326
2022-07-29T03:10:47.717Z,1366
2022-07-29T03:16:00.280Z,1902
2022-07-29T03:21:12.593Z,2224
2022-07-29T03:26:24.930Z,2226
2022-07-29T03:31:37.146Z,2674
2022-07-29T03:36:49.443Z,3121
2022-07-29T03:42:01.683Z,3654
2022-07-29T03:47:13.969Z,4271
2022-07-29T03:52:26.800Z,4694
2022-07-29T03:57:39.300Z,5004
2022-07-29T04:02:51.668Z,5142
2022-07-29T04:08:04.197Z,5154
2022-07-29T04:13:16.744Z,5161
2022-07-29T04:18:28.844Z,5179
2022-07-29T04:23:45.929Z,5253
2022-07-29T04:28:53.622Z,5253
2022-07-29T04:34:06.211Z,5250
2022-07-29T04:39:22.580Z,5253
2022-07-29T04:44:30.658Z,5209
2022-07-29T04:49:42.895Z,5250
2022-07-29T04:54:55.224Z,5250
2022-07-29T05:00:07.568Z,5221
2022-07-29T05:05:19.765Z,5253
2022-07-29T05:10:32.182Z,5253
2022-07-29T05:15:44.777Z,5223
2022-07-29T05:20:57.240Z,5209
2022-07-29T05:31:21.898Z,5255
2022-07-29T05:36:34.305Z,5207
2022-07-29T05:41:50.081Z,5225
2022-07-29T05:46:58.731Z,5207
2022-07-29T05:52:10.874Z,5188
2022-07-29T05:57:23.432Z,5230
2022-07-29T06:02:35.866Z,5230
2022-07-29T06:07:49.535Z,5250
2022-07-29T06:13:01.267Z,5221
2022-07-29T06:18:13.509Z,5250
2022-07-29T06:23:26.118Z,5204
2022-07-29T06:28:38.573Z,5227
2022-07-29T06:33:50.889Z,5163
2022-07-29T06:39:03.065Z,5223
2022-07-29T06:44:15.665Z,5253
2022-07-29T06:49:27.889Z,5179
2022-07-29T06:54:40.374Z,5223
2022-07-29T06:59:52.704Z,5158
2022-07-29T07:05:05.355Z,5186
2022-07-29T07:10:17.985Z,5172
2022-07-29T07:15:39.054Z,5195
2022-07-29T07:20:42.695Z,5255
2022-07-29T07:25:54.934Z,5223
2022-07-29T07:31:07.138Z,5216
2022-07-29T07:36:19.508Z,5257
2022-07-29T07:41:32.307Z,5227
2022-07-29T07:46:44.034Z,5225
2022-07-29T07:51:56.379Z,5179
2022-07-29T07:57:08.786Z,5214
2022-07-29T08:02:21.356Z,5122
2022-07-29T08:17:58.673Z,5260
2022-07-29T08:23:10.969Z,5241
2022-07-29T08:28:25.725Z,5184
2022-07-29T08:33:35.636Z,5163
2022-07-29T08:38:47.929Z,5163
2022-07-29T08:44:00.385Z,5181
2022-07-29T08:49:12.619Z,5227
2022-07-29T08:54:24.945Z,5209
2022-07-29T08:59:37.267Z,5237
2022-07-29T09:04:50.000Z,5234
2022-07-29T09:10:02.317Z,5129
2022-07-29T09:15:14.652Z,5255
2022-07-29T09:20:26.969Z,5122
2022-07-29T09:25:39.812Z,5267
2022-07-29T09:30:52.198Z,5218
2022-07-29T09:36:06.008Z,5193
2022-07-29T09:41:18.428Z,5227
2022-07-29T09:46:31.409Z,5246
2022-07-29T09:51:43.695Z,5241
2022-07-29T09:56:56.304Z,5248
2022-07-29T10:02:08.521Z,5232
2022-07-29T10:07:20.957Z,5269
2022-07-29T10:12:33.297Z,5257
2022-07-29T10:17:45.197Z,5253
2022-07-29T10:22:57.500Z,5209
2022-07-29T10:28:13.233Z,5241
2022-07-29T10:33:22.475Z,5193
2022-07-29T10:38:34.687Z,5225
2022-07-29T10:43:47.194Z,5221
2022-07-29T10:48:59.607Z,5250
2022-07-29T10:54:11.808Z,5241
2022-07-29T11:04:36.799Z,5221
2022-07-29T11:09:49.193Z,5269
2022-07-29T11:15:01.647Z,5239
2022-07-29T11:20:14.377Z,5244
2022-07-29T11:25:42.324Z,5255
2022-07-29T11:30:39.222Z,5273
2022-07-29T11:36:00.702Z,5280
2022-07-29T11:41:04.073Z,5285
2022-07-29T11:46:16.618Z,5301
2022-07-29T11:51:32.629Z,5276
2022-07-29T11:56:41.489Z,5292
2022-07-29T12:02:02.384Z,5260
2022-07-29T12:12:19.082Z,5271
2022-07-29T12:17:31.599Z,5285
2022-07-29T12:22:44.031Z,5255
2022-07-29T12:27:57.170Z,5313
2022-07-29T12:33:09.601Z,5283
2022-07-29T12:38:22.110Z,5262
2022-07-29T12:43:34.339Z,4958
2022-07-29T12:48:46.844Z,5283
2022-07-29T12:53:59.279Z,5306
2022-07-29T12:59:11.639Z,5225
2022-07-29T13:04:24.041Z,5276
2022-07-29T13:09:36.275Z,5303
2022-07-29T13:14:48.704Z,5303
2022-07-29T13:20:01.106Z,5250
2022-07-29T13:25:13.653Z,5315
2022-07-29T13:30:25.980Z,5310
2022-07-29T13:35:39.863Z,5292
2022-07-29T13:51:15.354Z,5331
2022-07-29T13:56:28.514Z,5299
2022-07-29T14:01:40.906Z,5276
2022-07-29T14:06:53.059Z,5308
2022-07-29T14:12:05.455Z,5308
2022-07-29T14:17:18.172Z,5333
2022-07-29T14:22:30.420Z,5313
2022-07-29T14:27:43.234Z,5336
2022-07-29T14:32:55.574Z,5333
2022-07-29T14:38:07.817Z,5294
2022-07-29T14:43:20.226Z,5315
2022-07-29T14:48:32.558Z,5294
2022-07-29T14:53:44.990Z,5322
2022-07-29T14:58:57.691Z,5336
2022-07-29T15:04:10.135Z,5292
2022-07-29T15:09:22.477Z,5319
2022-07-29T15:14:34.885Z,5336
2022-07-29T15:19:47.100Z,5338
2022-07-29T15:24:59.315Z,5292
2022-07-29T15:30:11.423Z,5333
2022-07-29T15:35:23.866Z,5230
2022-07-29T15:40:36.246Z,5276
2022-07-29T15:45:48.516Z,5303
2022-07-29T15:51:00.694Z,5299
2022-07-29T15:56:13.172Z,5313
2022-07-29T16:06:37.615Z,5280
2022-07-29T16:17:03.079Z,5336
2022-07-29T16:22:15.017Z,5296
2022-07-29T16:37:51.424Z,5317
2022-07-29T16:43:03.644Z,5329
2022-07-29T16:48:17.354Z,5285
2022-07-29T16:53:30.052Z,5313
2022-07-29T16:58:43.698Z,5322
2022-07-29T17:03:55.002Z,5326
2022-07-29T17:09:05.565Z,5278
2022-07-29T17:14:17.727Z,5306
2022-07-29T17:19:30.051Z,5301
2022-07-29T17:24:42.248Z,5303
2022-07-29T17:29:55.617Z,5062
2022-07-29T17:35:08.012Z,5301
2022-07-29T17:40:20.138Z,5319
2022-07-29T17:45:49.280Z,5315
2022-07-29T17:50:44.691Z,5294
2022-07-29T17:55:56.895Z,5301
2022-07-29T18:01:09.290Z,5292
2022-07-29T18:06:21.448Z,5313
2022-07-29T18:11:32.835Z,5303
2022-07-29T18:16:45.926Z,5271
2022-07-29T18:27:10.226Z,5250
2022-07-29T18:32:28.640Z,5299
2022-07-29T18:38:00.583Z,5296
2022-07-29T18:42:47.269Z,5129
2022-07-29T18:47:59.649Z,4986
2022-07-29T18:53:11.697Z,4514
2022-07-29T18:58:23.971Z,3677
2022-07-29T19:03:36.226Z,2904
2022-07-29T19:08:48.513Z,2019
2022-07-29T19:14:00.833Z,1971
2022-07-29T19:24:25.584Z,73
2022-07-29T19:29:37.646Z,0
2022-07-29T19:34:49.911Z,0
2022-07-29T19:40:02.064Z,0
2022-07-29T19:45:14.380Z,0
2022-07-29T19:50:26.815Z,0
2022-07-29T19:55:38.899Z,0
2022-07-29T20:00:57.418Z,0
2022-07-29T20:06:03.812Z,0
2022-07-29T20:11:16.088Z,0
2022-07-29T20:16:28.338Z,0
2022-07-29T20:21:41.226Z,0
2022-07-29T20:26:53.443Z,0
2022-07-29T20:32:05.739Z,0
2022-07-29T20:37:18.002Z,0
2022-07-29T20:42:30.318Z,0
2022-07-29T20:47:42.749Z,0
2022-07-29T20:52:58.161Z,0
2022-07-29T20:58:10.336Z,0
2022-07-29T21:03:22.607Z,0
2022-07-29T21:08:35.130Z,0
2022-07-29T21:13:47.214Z,0
2022-07-29T21:18:59.464Z,0
2022-07-29T21:24:11.998Z,0
2022-07-29T21:29:24.095Z,0
2022-07-29T21:34:39.701Z,0
2022-07-29T21:39:52.163Z,0
2022-07-29T21:45:04.328Z,0
2022-07-29T21:50:16.776Z,0
2022-07-29T21:55:28.993Z,0
2022-07-29T22:00:41.217Z,0
2022-07-29T22:11:06.048Z,0
2022-07-29T22:16:18.423Z,0
2022-07-29T22:21:30.713Z,0
2022-07-29T22:26:43.110Z,0
2022-07-29T22:31:55.408Z,0
2022-07-29T22:37:07.777Z,0
2022-07-29T22:42:19.999Z,0
2022-07-29T22:47:45.753Z,0
2022-07-29T22:52:44.488Z,0
2022-07-29T22:57:56.669Z,0
2022-07-29T23:03:08.993Z,0
2022-07-29T23:08:21.452Z,0
2022-07-29T23:13:33.731Z,0
2022-07-29T23:18:46.011Z,0
2022-07-29T23:23:58.408Z,0
2022-07-29T23:29:10.731Z,0
2022-07-29T23:34:23.023Z,0
2022-07-29T23:39:35.370Z,0
2022-07-29T23:49:59.925Z,0
2022-07-29T23:55:36.052Z,0
